Terminal Aerodrome Forecast
Issued by NWS St Louis, MO

Home | Current Version | Previous Version | Text Only | Print | Product List | Glossary On
Versions: 1 2 3 4 5 6 7 8 9 10 11 12 13 14 15 16 17 18 19 20 21
466
FTUS43 KLSX 231130
TAFCOU
TAF
KCOU 231130Z 2312/2412 03010KT P6SM OVC060
     FM231700 04013G21KT P6SM OVC070
     FM240000 05009KT P6SM OVC060
     FM240800 01005KT P6SM BKN020
     FM240900 36005KT P6SM BKN015=

USA.gov is the U.S. government's official web portal to all federal, state and local government web resources and services.